sensor_id;sensor_type;location;lat;lon;timestamp;temperature;humidity
13944;DHT22;7044;53.286;8.534;2024-03-29T00:00:36;7.80;99.90
13944;DHT22;7044;53.286;8.534;2024-03-29T00:03:03;7.90;99.90
13944;DHT22;7044;53.286;8.534;2024-03-29T00:05:29;8.50;99.90
13944;DHT22;7044;53.286;8.534;2024-03-29T00:07:55;7.80;99.90
13944;DHT22;7044;53.286;8.534;2024-03-29T00:10:21;7.90;99.90
13944;DHT22;7044;53.286;8.534;2024-03-29T00:12:46;7.90;99.90
13944;DHT22;7044;53.286;8.534;2024-03-29T00:15:12;8.20;99.90
13944;DHT22;7044;53.286;8.534;2024-03-29T00:17:39;7.90;99.90
13944;DHT22;7044;53.286;8.534;2024-03-29T00:20:06;7.90;99.90
13944;DHT22;7044;53.286;8.534;2024-03-29T00:22:32;7.90;99.90
13944;DHT22;7044;53.286;8.534;2024-03-29T00:24:58;7.90;99.90
13944;DHT22;7044;53.286;8.534;2024-03-29T00:27:24;7.90;99.90
13944;DHT22;7044;53.286;8.534;2024-03-29T00:32:16;7.90;99.90
13944;DHT22;7044;53.286;8.534;2024-03-29T00:34:43;7.70;99.90
13944;DHT22;7044;53.286;8.534;2024-03-29T00:39:35;7.90;99.90
13944;DHT22;7044;53.286;8.534;2024-03-29T00:44:28;8.00;99.90
13944;DHT22;7044;53.286;8.534;2024-03-29T00:46:53;7.90;99.90
13944;DHT22;7044;53.286;8.534;2024-03-29T00:49:19;8.00;99.90
13944;DHT22;7044;53.286;8.534;2024-03-29T00:51:47;7.90;99.90
13944;DHT22;7044;53.286;8.534;2024-03-29T00:54:12;8.00;99.90
13944;DHT22;7044;53.286;8.534;2024-03-29T00:56:38;8.00;99.90
13944;DHT22;7044;53.286;8.534;2024-03-29T00:59:04;7.90;99.90
13944;DHT22;7044;53.286;8.534;2024-03-29T01:01:30;7.90;99.90
13944;DHT22;7044;53.286;8.534;2024-03-29T01:03:56;7.90;99.90
13944;DHT22;7044;53.286;8.534;2024-03-29T01:06:22;7.90;99.90
13944;DHT22;7044;53.286;8.534;2024-03-29T01:08:49;7.80;99.90
13944;DHT22;7044;53.286;8.534;2024-03-29T01:11:15;7.90;99.90
13944;DHT22;7044;53.286;8.534;2024-03-29T01:13:41;7.80;99.90
13944;DHT22;7044;53.286;8.534;2024-03-29T01:16:07;8.10;99.90
13944;DHT22;7044;53.286;8.534;2024-03-29T01:18:33;7.70;99.90
13944;DHT22;7044;53.286;8.534;2024-03-29T01:20:59;7.80;99.90
13944;DHT22;7044;53.286;8.534;2024-03-29T01:23:25;7.70;99.90
13944;DHT22;7044;53.286;8.534;2024-03-29T01:25:52;7.40;99.90
13944;DHT22;7044;53.286;8.534;2024-03-29T01:28:18;7.80;99.90
13944;DHT22;7044;53.286;8.534;2024-03-29T01:30:51;7.80;99.90
13944;DHT22;7044;53.286;8.534;2024-03-29T01:33:18;7.80;99.90
13944;DHT22;7044;53.286;8.534;2024-03-29T01:35:43;7.90;99.90
13944;DHT22;7044;53.286;8.534;2024-03-29T01:38:09;7.70;99.90
13944;DHT22;7044;53.286;8.534;2024-03-29T01:40:35;8.00;99.90
13944;DHT22;7044;53.286;8.534;2024-03-29T01:43:03;7.80;99.90
13944;DHT22;7044;53.286;8.534;2024-03-29T01:45:30;8.30;99.90
13944;DHT22;7044;53.286;8.534;2024-03-29T01:47:57;7.70;99.90
13944;DHT22;7044;53.286;8.534;2024-03-29T01:52:52;7.60;99.90
13944;DHT22;7044;53.286;8.534;2024-03-29T01:55:19;7.70;99.90
13944;DHT22;7044;53.286;8.534;2024-03-29T01:57:46;7.70;99.90
13944;DHT22;7044;53.286;8.534;2024-03-29T02:00:15;7.70;99.90
13944;DHT22;7044;53.286;8.534;2024-03-29T02:02:41;7.70;99.90
13944;DHT22;7044;53.286;8.534;2024-03-29T02:05:08;8.20;99.90
13944;DHT22;7044;53.286;8.534;2024-03-29T02:07:36;7.70;99.90
13944;DHT22;7044;53.286;8.534;2024-03-29T02:10:04;8.30;99.90
13944;DHT22;7044;53.286;8.534;2024-03-29T02:12:32;7.70;99.90
13944;DHT22;7044;53.286;8.534;2024-03-29T02:14:59;8.70;99.90
13944;DHT22;7044;53.286;8.534;2024-03-29T02:17:29;7.70;99.90
13944;DHT22;7044;53.286;8.534;2024-03-29T02:22:24;7.60;99.90
13944;DHT22;7044;53.286;8.534;2024-03-29T02:24:54;7.70;99.90
13944;DHT22;7044;53.286;8.534;2024-03-29T02:27:21;7.60;99.90
13944;DHT22;7044;53.286;8.534;2024-03-29T02:29:48;8.30;99.90
13944;DHT22;7044;53.286;8.534;2024-03-29T02:32:16;7.80;99.90
13944;DHT22;7044;53.286;8.534;2024-03-29T02:34:43;7.60;99.90
13944;DHT22;7044;53.286;8.534;2024-03-29T02:37:10;7.60;99.90
13944;DHT22;7044;53.286;8.534;2024-03-29T02:39:37;7.60;99.90
13944;DHT22;7044;53.286;8.534;2024-03-29T02:42:06;7.60;99.90
13944;DHT22;7044;53.286;8.534;2024-03-29T02:44:33;7.60;99.90
13944;DHT22;7044;53.286;8.534;2024-03-29T02:46:59;7.80;99.90
13944;DHT22;7044;53.286;8.534;2024-03-29T02:49:26;7.60;99.90
13944;DHT22;7044;53.286;8.534;2024-03-29T02:51:52;7.60;99.90
13944;DHT22;7044;53.286;8.534;2024-03-29T02:54:20;7.60;99.90
13944;DHT22;7044;53.286;8.534;2024-03-29T02:56:47;7.60;99.90
13944;DHT22;7044;53.286;8.534;2024-03-29T02:59:14;7.60;99.90
13944;DHT22;7044;53.286;8.534;2024-03-29T03:01:41;7.60;99.90
13944;DHT22;7044;53.286;8.534;2024-03-29T03:04:07;7.60;99.90
13944;DHT22;7044;53.286;8.534;2024-03-29T03:06:34;7.60;99.90
13944;DHT22;7044;53.286;8.534;2024-03-29T03:09:00;7.60;99.90
13944;DHT22;7044;53.286;8.534;2024-03-29T03:11:44;9.00;99.90
13944;DHT22;7044;53.286;8.534;2024-03-29T03:14:11;7.70;99.90
13944;DHT22;7044;53.286;8.534;2024-03-29T03:16:38;7.70;99.90
13944;DHT22;7044;53.286;8.534;2024-03-29T03:19:05;7.70;99.90
13944;DHT22;7044;53.286;8.534;2024-03-29T03:21:31;7.70;99.90
13944;DHT22;7044;53.286;8.534;2024-03-29T03:23:58;8.30;99.90
13944;DHT22;7044;53.286;8.534;2024-03-29T03:26:24;7.70;99.90
13944;DHT22;7044;53.286;8.534;2024-03-29T03:28:51;7.70;99.90
13944;DHT22;7044;53.286;8.534;2024-03-29T03:31:18;7.70;99.90
13944;DHT22;7044;53.286;8.534;2024-03-29T03:33:45;7.70;99.90
13944;DHT22;7044;53.286;8.534;2024-03-29T03:36:12;8.30;99.90
13944;DHT22;7044;53.286;8.534;2024-03-29T03:38:38;7.70;99.90
13944;DHT22;7044;53.286;8.534;2024-03-29T03:41:05;7.70;99.90
13944;DHT22;7044;53.286;8.534;2024-03-29T03:46:01;7.80;99.90
13944;DHT22;7044;53.286;8.534;2024-03-29T03:48:27;7.80;99.90
13944;DHT22;7044;53.286;8.534;2024-03-29T03:50:55;6.40;99.90
13944;DHT22;7044;53.286;8.534;2024-03-29T03:53:21;7.70;99.90
13944;DHT22;7044;53.286;8.534;2024-03-29T03:55:48;8.30;99.90
13944;DHT22;7044;53.286;8.534;2024-03-29T04:00:42;8.30;99.90
13944;DHT22;7044;53.286;8.534;2024-03-29T04:03:08;7.70;99.90
13944;DHT22;7044;53.286;8.534;2024-03-29T04:05:37;7.70;99.90
13944;DHT22;7044;53.286;8.534;2024-03-29T04:08:04;7.70;99.90
13944;DHT22;7044;53.286;8.534;2024-03-29T04:10:31;7.70;99.90
13944;DHT22;7044;53.286;8.534;2024-03-29T04:12:57;8.50;99.90
13944;DHT22;7044;53.286;8.534;2024-03-29T04:15:24;7.20;99.90
13944;DHT22;7044;53.286;8.534;2024-03-29T04:17:50;7.20;99.90
13944;DHT22;7044;53.286;8.534;2024-03-29T04:20:17;8.00;99.90
13944;DHT22;7044;53.286;8.534;2024-03-29T04:22:43;7.70;99.90
13944;DHT22;7044;53.286;8.534;2024-03-29T04:25:12;7.70;99.90
13944;DHT22;7044;53.286;8.534;2024-03-29T04:27:38;8.60;99.90
13944;DHT22;7044;53.286;8.534;2024-03-29T04:30:06;7.70;99.90
13944;DHT22;7044;53.286;8.534;2024-03-29T04:32:32;7.70;99.90
13944;DHT22;7044;53.286;8.534;2024-03-29T04:34:59;7.70;99.90
13944;DHT22;7044;53.286;8.534;2024-03-29T04:37:25;7.70;99.90
13944;DHT22;7044;53.286;8.534;2024-03-29T04:42:20;7.70;99.90
13944;DHT22;7044;53.286;8.534;2024-03-29T04:44:47;7.70;99.90
13944;DHT22;7044;53.286;8.534;2024-03-29T04:47:14;7.60;99.90
13944;DHT22;7044;53.286;8.534;2024-03-29T04:49:41;7.70;99.90
13944;DHT22;7044;53.286;8.534;2024-03-29T04:52:08;7.70;99.90
13944;DHT22;7044;53.286;8.534;2024-03-29T04:54:35;7.60;99.90
13944;DHT22;7044;53.286;8.534;2024-03-29T04:57:02;7.70;99.90
13944;DHT22;7044;53.286;8.534;2024-03-29T04:59:33;7.70;99.90
13944;DHT22;7044;53.286;8.534;2024-03-29T05:02:00;7.70;99.90
13944;DHT22;7044;53.286;8.534;2024-03-29T05:04:27;7.70;99.90
13944;DHT22;7044;53.286;8.534;2024-03-29T05:06:55;7.70;99.90
13944;DHT22;7044;53.286;8.534;2024-03-29T05:09:23;7.70;99.90
13944;DHT22;7044;53.286;8.534;2024-03-29T05:11:50;8.00;99.90
13944;DHT22;7044;53.286;8.534;2024-03-29T05:14:18;7.70;99.90
13944;DHT22;7044;53.286;8.534;2024-03-29T05:16:47;7.70;99.90
13944;DHT22;7044;53.286;8.534;2024-03-29T05:19:15;7.70;99.90
13944;DHT22;7044;53.286;8.534;2024-03-29T05:24:09;8.60;99.90
13944;DHT22;7044;53.286;8.534;2024-03-29T05:29:03;7.70;99.90
13944;DHT22;7044;53.286;8.534;2024-03-29T05:31:30;7.70;99.90
13944;DHT22;7044;53.286;8.534;2024-03-29T05:33:59;7.70;99.90
13944;DHT22;7044;53.286;8.534;2024-03-29T05:36:27;7.70;99.90
13944;DHT22;7044;53.286;8.534;2024-03-29T05:38:54;7.70;99.90
13944;DHT22;7044;53.286;8.534;2024-03-29T05:41:21;7.90;99.90
13944;DHT22;7044;53.286;8.534;2024-03-29T05:43:48;7.70;99.90
13944;DHT22;7044;53.286;8.534;2024-03-29T05:46:16;7.80;99.90
13944;DHT22;7044;53.286;8.534;2024-03-29T05:51:12;7.80;99.90
13944;DHT22;7044;53.286;8.534;2024-03-29T05:56:06;7.80;99.90
13944;DHT22;7044;53.286;8.534;2024-03-29T05:58:33;7.80;99.90
13944;DHT22;7044;53.286;8.534;2024-03-29T06:03:27;7.80;99.90
13944;DHT22;7044;53.286;8.534;2024-03-29T06:05:55;7.80;99.90
13944;DHT22;7044;53.286;8.534;2024-03-29T06:08:23;7.80;99.90
13944;DHT22;7044;53.286;8.534;2024-03-29T06:10:52;7.40;99.90
13944;DHT22;7044;53.286;8.534;2024-03-29T06:13:19;8.40;99.90
13944;DHT22;7044;53.286;8.534;2024-03-29T06:16:14;8.00;99.90
13944;DHT22;7044;53.286;8.534;2024-03-29T06:18:59;8.10;99.90
13944;DHT22;7044;53.286;8.534;2024-03-29T06:21:26;8.20;99.90
13944;DHT22;7044;53.286;8.534;2024-03-29T06:23:54;8.30;99.90
13944;DHT22;7044;53.286;8.534;2024-03-29T06:26:21;8.20;99.90
13944;DHT22;7044;53.286;8.534;2024-03-29T06:28:48;8.40;99.90
13944;DHT22;7044;53.286;8.534;2024-03-29T06:31:14;8.30;99.90
13944;DHT22;7044;53.286;8.534;2024-03-29T06:33:41;8.40;99.90
13944;DHT22;7044;53.286;8.534;2024-03-29T06:36:08;8.80;99.90
13944;DHT22;7044;53.286;8.534;2024-03-29T06:41:04;8.50;99.90
13944;DHT22;7044;53.286;8.534;2024-03-29T06:43:31;8.60;99.90
13944;DHT22;7044;53.286;8.534;2024-03-29T06:45:58;8.60;99.90
13944;DHT22;7044;53.286;8.534;2024-03-29T06:48:25;8.70;99.90
13944;DHT22;7044;53.286;8.534;2024-03-29T06:50:52;8.80;99.90
13944;DHT22;7044;53.286;8.534;2024-03-29T06:53:18;8.70;99.90
13944;DHT22;7044;53.286;8.534;2024-03-29T06:55:46;8.50;99.90
13944;DHT22;7044;53.286;8.534;2024-03-29T06:58:15;7.90;99.90
13944;DHT22;7044;53.286;8.534;2024-03-29T07:00:45;8.70;99.90
13944;DHT22;7044;53.286;8.534;2024-03-29T07:03:12;8.80;99.90
13944;DHT22;7044;53.286;8.534;2024-03-29T07:05:37;8.80;99.90
13944;DHT22;7044;53.286;8.534;2024-03-29T07:08:05;8.80;99.90
13944;DHT22;7044;53.286;8.534;2024-03-29T07:10:32;9.00;99.90
13944;DHT22;7044;53.286;8.534;2024-03-29T07:12:59;8.80;99.90
13944;DHT22;7044;53.286;8.534;2024-03-29T07:15:27;8.80;99.90
13944;DHT22;7044;53.286;8.534;2024-03-29T07:17:54;8.70;99.90
13944;DHT22;7044;53.286;8.534;2024-03-29T07:22:49;8.70;99.90
13944;DHT22;7044;53.286;8.534;2024-03-29T07:27:43;8.80;99.90
13944;DHT22;7044;53.286;8.534;2024-03-29T07:30:12;9.00;99.90
13944;DHT22;7044;53.286;8.534;2024-03-29T07:32:40;8.70;99.90
13944;DHT22;7044;53.286;8.534;2024-03-29T07:35:08;8.50;99.90
13944;DHT22;7044;53.286;8.534;2024-03-29T07:37:34;8.70;99.90
13944;DHT22;7044;53.286;8.534;2024-03-29T07:40:02;8.80;99.90
13944;DHT22;7044;53.286;8.534;2024-03-29T07:42:29;8.60;99.90
13944;DHT22;7044;53.286;8.534;2024-03-29T07:44:56;8.70;99.90
13944;DHT22;7044;53.286;8.534;2024-03-29T07:47:23;8.70;99.90
13944;DHT22;7044;53.286;8.534;2024-03-29T07:49:52;8.70;99.90
13944;DHT22;7044;53.286;8.534;2024-03-29T07:52:19;8.70;99.90
13944;DHT22;7044;53.286;8.534;2024-03-29T07:54:47;8.60;99.90
13944;DHT22;7044;53.286;8.534;2024-03-29T07:57:14;8.60;99.90
13944;DHT22;7044;53.286;8.534;2024-03-29T07:59:42;8.60;99.90
13944;DHT22;7044;53.286;8.534;2024-03-29T08:02:09;7.80;99.90
13944;DHT22;7044;53.286;8.534;2024-03-29T08:04:37;8.60;99.90
13944;DHT22;7044;53.286;8.534;2024-03-29T08:07:05;8.60;99.90
13944;DHT22;7044;53.286;8.534;2024-03-29T08:09:32;8.60;99.90
13944;DHT22;7044;53.286;8.534;2024-03-29T08:12:00;8.70;99.90
13944;DHT22;7044;53.286;8.534;2024-03-29T08:14:26;8.70;99.90
13944;DHT22;7044;53.286;8.534;2024-03-29T08:16:53;8.70;99.90
13944;DHT22;7044;53.286;8.534;2024-03-29T08:19:21;8.90;99.90
13944;DHT22;7044;53.286;8.534;2024-03-29T08:21:48;8.80;99.90
13944;DHT22;7044;53.286;8.534;2024-03-29T08:24:16;8.80;99.90
13944;DHT22;7044;53.286;8.534;2024-03-29T08:26:43;8.60;99.90
13944;DHT22;7044;53.286;8.534;2024-03-29T08:29:09;8.90;99.90
13944;DHT22;7044;53.286;8.534;2024-03-29T08:31:36;8.80;99.90
13944;DHT22;7044;53.286;8.534;2024-03-29T08:34:03;8.90;99.90
13944;DHT22;7044;53.286;8.534;2024-03-29T08:36:32;8.90;99.90
13944;DHT22;7044;53.286;8.534;2024-03-29T08:38:59;8.90;99.90
13944;DHT22;7044;53.286;8.534;2024-03-29T08:41:27;9.00;99.90
13944;DHT22;7044;53.286;8.534;2024-03-29T08:43:54;9.00;99.90
13944;DHT22;7044;53.286;8.534;2024-03-29T08:48:49;9.00;99.90
13944;DHT22;7044;53.286;8.534;2024-03-29T08:51:16;8.90;99.90
13944;DHT22;7044;53.286;8.534;2024-03-29T08:53:43;9.00;99.90
13944;DHT22;7044;53.286;8.534;2024-03-29T08:58:38;8.90;99.90
13944;DHT22;7044;53.286;8.534;2024-03-29T09:01:05;9.00;99.90
13944;DHT22;7044;53.286;8.534;2024-03-29T09:05:59;9.30;99.90
13944;DHT22;7044;53.286;8.534;2024-03-29T09:08:26;9.40;99.90
13944;DHT22;7044;53.286;8.534;2024-03-29T09:10:53;9.30;99.90
13944;DHT22;7044;53.286;8.534;2024-03-29T09:13:20;9.30;99.90
13944;DHT22;7044;53.286;8.534;2024-03-29T09:15:48;9.30;99.90
13944;DHT22;7044;53.286;8.534;2024-03-29T09:18:15;9.50;99.90
13944;DHT22;7044;53.286;8.534;2024-03-29T09:20:56;9.50;99.90
13944;DHT22;7044;53.286;8.534;2024-03-29T09:23:23;9.00;99.90
13944;DHT22;7044;53.286;8.534;2024-03-29T09:25:50;9.40;99.90
13944;DHT22;7044;53.286;8.534;2024-03-29T09:30:48;9.30;99.90
13944;DHT22;7044;53.286;8.534;2024-03-29T09:33:15;9.60;99.90
13944;DHT22;7044;53.286;8.534;2024-03-29T09:35:42;9.60;99.90
13944;DHT22;7044;53.286;8.534;2024-03-29T09:38:09;9.50;99.90
13944;DHT22;7044;53.286;8.534;2024-03-29T09:40:36;9.60;99.90
13944;DHT22;7044;53.286;8.534;2024-03-29T09:43:03;9.60;99.90
13944;DHT22;7044;53.286;8.534;2024-03-29T09:45:32;10.00;99.90
13944;DHT22;7044;53.286;8.534;2024-03-29T09:48:02;10.80;99.90
13944;DHT22;7044;53.286;8.534;2024-03-29T09:50:30;11.30;99.90
13944;DHT22;7044;53.286;8.534;2024-03-29T09:52:58;11.50;99.90
13944;DHT22;7044;53.286;8.534;2024-03-29T09:55:25;12.00;99.90
13944;DHT22;7044;53.286;8.534;2024-03-29T09:57:53;12.20;99.90
13944;DHT22;7044;53.286;8.534;2024-03-29T10:00:20;12.20;99.90
13944;DHT22;7044;53.286;8.534;2024-03-29T10:02:49;12.30;99.90
13944;DHT22;7044;53.286;8.534;2024-03-29T10:05:18;12.40;99.90
13944;DHT22;7044;53.286;8.534;2024-03-29T10:07:45;12.50;99.90
13944;DHT22;7044;53.286;8.534;2024-03-29T10:10:13;12.50;99.90
13944;DHT22;7044;53.286;8.534;2024-03-29T10:12:39;12.50;99.90
13944;DHT22;7044;53.286;8.534;2024-03-29T10:15:07;12.40;99.90
13944;DHT22;7044;53.286;8.534;2024-03-29T10:17:39;12.30;99.90
13944;DHT22;7044;53.286;8.534;2024-03-29T10:20:07;11.50;99.90
13944;DHT22;7044;53.286;8.534;2024-03-29T10:22:40;11.10;99.90
13944;DHT22;7044;53.286;8.534;2024-03-29T10:25:08;10.90;99.90
13944;DHT22;7044;53.286;8.534;2024-03-29T10:27:35;11.70;99.90
13944;DHT22;7044;53.286;8.534;2024-03-29T10:30:02;10.70;99.90
13944;DHT22;7044;53.286;8.534;2024-03-29T10:32:30;10.70;99.90
13944;DHT22;7044;53.286;8.534;2024-03-29T10:34:57;11.30;99.90
13944;DHT22;7044;53.286;8.534;2024-03-29T10:37:28;11.80;99.90
13944;DHT22;7044;53.286;8.534;2024-03-29T10:40:00;11.80;99.90
13944;DHT22;7044;53.286;8.534;2024-03-29T10:42:31;11.70;99.90
13944;DHT22;7044;53.286;8.534;2024-03-29T10:44:59;12.00;99.90
13944;DHT22;7044;53.286;8.534;2024-03-29T10:47:28;11.50;99.90
13944;DHT22;7044;53.286;8.534;2024-03-29T10:49:56;11.30;99.90
13944;DHT22;7044;53.286;8.534;2024-03-29T10:52:25;11.20;99.90
13944;DHT22;7044;53.286;8.534;2024-03-29T10:54:53;11.20;99.90
13944;DHT22;7044;53.286;8.534;2024-03-29T10:57:23;11.20;99.90
13944;DHT22;7044;53.286;8.534;2024-03-29T10:59:58;11.10;99.90
13944;DHT22;7044;53.286;8.534;2024-03-29T11:02:46;10.20;99.90
13944;DHT22;7044;53.286;8.534;2024-03-29T11:05:15;11.20;99.90
13944;DHT22;7044;53.286;8.534;2024-03-29T11:07:43;11.80;99.90
13944;DHT22;7044;53.286;8.534;2024-03-29T11:10:15;11.60;99.90
13944;DHT22;7044;53.286;8.534;2024-03-29T11:12:50;11.60;99.90
13944;DHT22;7044;53.286;8.534;2024-03-29T11:15:25;11.60;99.90
13944;DHT22;7044;53.286;8.534;2024-03-29T11:17:55;11.50;99.90
13944;DHT22;7044;53.286;8.534;2024-03-29T11:20:24;11.60;99.90
13944;DHT22;7044;53.286;8.534;2024-03-29T11:23:03;11.70;99.90
13944;DHT22;7044;53.286;8.534;2024-03-29T11:25:41;11.70;99.90
13944;DHT22;7044;53.286;8.534;2024-03-29T11:28:11;11.70;99.90
13944;DHT22;7044;53.286;8.534;2024-03-29T11:30:42;11.90;99.90
13944;DHT22;7044;53.286;8.534;2024-03-29T11:33:30;11.90;99.90
13944;DHT22;7044;53.286;8.534;2024-03-29T11:35:59;12.00;99.90
13944;DHT22;7044;53.286;8.534;2024-03-29T11:38:34;12.00;99.90
13944;DHT22;7044;53.286;8.534;2024-03-29T11:41:05;12.00;99.90
13944;DHT22;7044;53.286;8.534;2024-03-29T11:43:35;12.00;99.90
13944;DHT22;7044;53.286;8.534;2024-03-29T11:46:05;11.90;99.90
13944;DHT22;7044;53.286;8.534;2024-03-29T11:48:33;11.90;99.90
13944;DHT22;7044;53.286;8.534;2024-03-29T11:51:02;11.80;99.90
13944;DHT22;7044;53.286;8.534;2024-03-29T11:53:30;11.80;99.90
13944;DHT22;7044;53.286;8.534;2024-03-29T11:55:57;11.80;99.90
13944;DHT22;7044;53.286;8.534;2024-03-29T11:58:25;11.90;99.90
13944;DHT22;7044;53.286;8.534;2024-03-29T12:00:55;11.80;99.90
13944;DHT22;7044;53.286;8.534;2024-03-29T12:03:24;11.80;99.90
13944;DHT22;7044;53.286;8.534;2024-03-29T12:05:52;11.80;99.90
13944;DHT22;7044;53.286;8.534;2024-03-29T12:08:20;11.80;99.90
13944;DHT22;7044;53.286;8.534;2024-03-29T12:10:47;11.60;99.90
13944;DHT22;7044;53.286;8.534;2024-03-29T12:13:16;11.40;99.90
13944;DHT22;7044;53.286;8.534;2024-03-29T12:15:44;11.80;99.90
13944;DHT22;7044;53.286;8.534;2024-03-29T12:18:12;11.80;99.90
13944;DHT22;7044;53.286;8.534;2024-03-29T12:20:42;12.00;99.90
13944;DHT22;7044;53.286;8.534;2024-03-29T12:23:12;12.00;99.90
13944;DHT22;7044;53.286;8.534;2024-03-29T12:25:39;12.10;99.90
13944;DHT22;7044;53.286;8.534;2024-03-29T12:28:06;12.10;99.90
13944;DHT22;7044;53.286;8.534;2024-03-29T12:30:33;12.20;99.90
13944;DHT22;7044;53.286;8.534;2024-03-29T12:33:02;13.30;99.90
13944;DHT22;7044;53.286;8.534;2024-03-29T12:35:30;12.10;99.90
13944;DHT22;7044;53.286;8.534;2024-03-29T12:37:58;12.20;99.90
13944;DHT22;7044;53.286;8.534;2024-03-29T12:40:26;12.20;99.90
13944;DHT22;7044;53.286;8.534;2024-03-29T12:42:56;12.20;99.90
13944;DHT22;7044;53.286;8.534;2024-03-29T12:45:24;12.30;99.90
13944;DHT22;7044;53.286;8.534;2024-03-29T12:47:52;12.30;99.90
13944;DHT22;7044;53.286;8.534;2024-03-29T12:50:24;12.40;99.90
13944;DHT22;7044;53.286;8.534;2024-03-29T12:52:56;12.50;99.90
13944;DHT22;7044;53.286;8.534;2024-03-29T12:55:24;12.50;99.90
13944;DHT22;7044;53.286;8.534;2024-03-29T12:57:55;12.70;99.90
13944;DHT22;7044;53.286;8.534;2024-03-29T13:00:23;12.70;99.90
13944;DHT22;7044;53.286;8.534;2024-03-29T13:02:50;12.60;99.90
13944;DHT22;7044;53.286;8.534;2024-03-29T13:05:17;12.80;99.90
13944;DHT22;7044;53.286;8.534;2024-03-29T13:07:44;12.40;99.90
13944;DHT22;7044;53.286;8.534;2024-03-29T13:10:12;12.10;99.90
13944;DHT22;7044;53.286;8.534;2024-03-29T13:12:40;15.30;99.90
13944;DHT22;7044;53.286;8.534;2024-03-29T13:15:16;12.70;99.90
13944;DHT22;7044;53.286;8.534;2024-03-29T13:17:44;12.80;99.90
13944;DHT22;7044;53.286;8.534;2024-03-29T13:20:13;12.90;99.90
13944;DHT22;7044;53.286;8.534;2024-03-29T13:22:41;12.90;99.90
13944;DHT22;7044;53.286;8.534;2024-03-29T13:25:12;12.90;99.90
13944;DHT22;7044;53.286;8.534;2024-03-29T13:27:39;12.90;99.90
13944;DHT22;7044;53.286;8.534;2024-03-29T13:30:07;12.30;99.90
13944;DHT22;7044;53.286;8.534;2024-03-29T13:32:35;12.90;99.90
13944;DHT22;7044;53.286;8.534;2024-03-29T13:35:02;12.70;99.90
13944;DHT22;7044;53.286;8.534;2024-03-29T13:37:31;12.80;99.90
13944;DHT22;7044;53.286;8.534;2024-03-29T13:42:26;12.90;99.90
13944;DHT22;7044;53.286;8.534;2024-03-29T13:44:53;12.80;99.90
13944;DHT22;7044;53.286;8.534;2024-03-29T13:47:20;12.80;99.90
13944;DHT22;7044;53.286;8.534;2024-03-29T13:49:47;12.70;99.90
13944;DHT22;7044;53.286;8.534;2024-03-29T13:52:18;12.70;99.90
13944;DHT22;7044;53.286;8.534;2024-03-29T13:54:45;12.60;99.90
13944;DHT22;7044;53.286;8.534;2024-03-29T13:57:12;11.50;99.90
13944;DHT22;7044;53.286;8.534;2024-03-29T13:59:41;12.60;99.90
13944;DHT22;7044;53.286;8.534;2024-03-29T14:02:10;12.60;99.90
13944;DHT22;7044;53.286;8.534;2024-03-29T14:04:37;12.60;99.90
13944;DHT22;7044;53.286;8.534;2024-03-29T14:07:03;12.70;99.90
13944;DHT22;7044;53.286;8.534;2024-03-29T14:09:33;12.50;99.90
13944;DHT22;7044;53.286;8.534;2024-03-29T14:12:00;13.30;99.90
13944;DHT22;7044;53.286;8.534;2024-03-29T14:14:27;12.60;99.90
13944;DHT22;7044;53.286;8.534;2024-03-29T14:16:56;12.60;99.90
13944;DHT22;7044;53.286;8.534;2024-03-29T14:19:23;12.60;99.90
13944;DHT22;7044;53.286;8.534;2024-03-29T14:21:50;12.60;99.90
13944;DHT22;7044;53.286;8.534;2024-03-29T14:24:17;12.60;99.90
13944;DHT22;7044;53.286;8.534;2024-03-29T14:26:43;11.60;99.90
13944;DHT22;7044;53.286;8.534;2024-03-29T14:29:10;12.70;99.90
13944;DHT22;7044;53.286;8.534;2024-03-29T14:31:38;12.70;99.90
13944;DHT22;7044;53.286;8.534;2024-03-29T14:34:06;12.80;99.90
13944;DHT22;7044;53.286;8.534;2024-03-29T14:36:33;12.80;99.90
13944;DHT22;7044;53.286;8.534;2024-03-29T14:39:00;12.90;99.90
13944;DHT22;7044;53.286;8.534;2024-03-29T14:43:54;13.00;99.90
13944;DHT22;7044;53.286;8.534;2024-03-29T14:46:22;13.40;99.90
13944;DHT22;7044;53.286;8.534;2024-03-29T14:48:50;13.40;99.90
13944;DHT22;7044;53.286;8.534;2024-03-29T14:51:18;12.40;99.90
13944;DHT22;7044;53.286;8.534;2024-03-29T14:53:46;13.00;99.90
13944;DHT22;7044;53.286;8.534;2024-03-29T14:58:42;13.10;99.90
13944;DHT22;7044;53.286;8.534;2024-03-29T15:01:09;13.20;99.90
13944;DHT22;7044;53.286;8.534;2024-03-29T15:03:36;13.20;99.90
13944;DHT22;7044;53.286;8.534;2024-03-29T15:06:03;13.20;99.90
13944;DHT22;7044;53.286;8.534;2024-03-29T15:08:31;11.60;99.90
13944;DHT22;7044;53.286;8.534;2024-03-29T15:10:59;13.30;99.90
13944;DHT22;7044;53.286;8.534;2024-03-29T15:13:26;13.30;99.90
13944;DHT22;7044;53.286;8.534;2024-03-29T15:15:55;13.20;99.90
13944;DHT22;7044;53.286;8.534;2024-03-29T15:20:56;13.20;99.90
13944;DHT22;7044;53.286;8.534;2024-03-29T15:23:23;13.80;99.90
13944;DHT22;7044;53.286;8.534;2024-03-29T15:25:54;13.80;99.90
13944;DHT22;7044;53.286;8.534;2024-03-29T15:28:23;13.60;99.90
13944;DHT22;7044;53.286;8.534;2024-03-29T15:31:08;13.40;99.90
13944;DHT22;7044;53.286;8.534;2024-03-29T15:33:35;13.40;99.90
13944;DHT22;7044;53.286;8.534;2024-03-29T15:36:03;13.40;99.90
13944;DHT22;7044;53.286;8.534;2024-03-29T15:38:30;13.40;99.90
13944;DHT22;7044;53.286;8.534;2024-03-29T15:40:59;13.40;99.90
13944;DHT22;7044;53.286;8.534;2024-03-29T15:43:26;13.50;99.90
13944;DHT22;7044;53.286;8.534;2024-03-29T15:45:54;12.90;99.90
13944;DHT22;7044;53.286;8.534;2024-03-29T15:48:21;13.40;99.90
13944;DHT22;7044;53.286;8.534;2024-03-29T15:50:48;13.30;99.90
13944;DHT22;7044;53.286;8.534;2024-03-29T15:55:42;13.50;99.90
13944;DHT22;7044;53.286;8.534;2024-03-29T15:58:11;13.90;99.90
13944;DHT22;7044;53.286;8.534;2024-03-29T16:00:38;14.00;99.90
13944;DHT22;7044;53.286;8.534;2024-03-29T16:03:08;14.20;99.90
13944;DHT22;7044;53.286;8.534;2024-03-29T16:05:36;14.40;99.90
13944;DHT22;7044;53.286;8.534;2024-03-29T16:08:03;14.40;99.90
13944;DHT22;7044;53.286;8.534;2024-03-29T16:10:30;15.80;99.90
13944;DHT22;7044;53.286;8.534;2024-03-29T16:12:57;14.70;99.90
13944;DHT22;7044;53.286;8.534;2024-03-29T16:15:25;14.80;99.90
13944;DHT22;7044;53.286;8.534;2024-03-29T16:17:52;14.60;99.90
13944;DHT22;7044;53.286;8.534;2024-03-29T16:20:18;15.20;99.90
13944;DHT22;7044;53.286;8.534;2024-03-29T16:22:45;14.10;99.90
13944;DHT22;7044;53.286;8.534;2024-03-29T16:25:12;14.50;99.90
13944;DHT22;7044;53.286;8.534;2024-03-29T16:27:38;13.00;99.90
13944;DHT22;7044;53.286;8.534;2024-03-29T16:30:07;13.70;99.90
13944;DHT22;7044;53.286;8.534;2024-03-29T16:32:35;13.70;99.90
13944;DHT22;7044;53.286;8.534;2024-03-29T16:35:02;13.70;99.90
13944;DHT22;7044;53.286;8.534;2024-03-29T16:39:55;14.30;99.90
13944;DHT22;7044;53.286;8.534;2024-03-29T16:44:48;13.70;99.90
13944;DHT22;7044;53.286;8.534;2024-03-29T16:47:14;13.50;99.90
13944;DHT22;7044;53.286;8.534;2024-03-29T16:49:43;13.40;99.90
13944;DHT22;7044;53.286;8.534;2024-03-29T16:52:08;13.40;99.90
13944;DHT22;7044;53.286;8.534;2024-03-29T16:54:35;13.60;99.90
13944;DHT22;7044;53.286;8.534;2024-03-29T16:57:01;13.30;99.90
13944;DHT22;7044;53.286;8.534;2024-03-29T16:59:28;13.30;99.90
13944;DHT22;7044;53.286;8.534;2024-03-29T17:01:54;13.30;99.90
13944;DHT22;7044;53.286;8.534;2024-03-29T17:04:21;13.10;99.90